createdAt,value
2023-04-07T00:03:17.971Z,84.24
2023-04-07T00:08:11.220Z,84.41
2023-04-07T00:13:04.473Z,84.62
2023-04-07T00:17:57.415Z,84.37
2023-04-07T00:22:50.664Z,84.38
2023-04-07T00:27:43.474Z,84.44
2023-04-07T00:32:36.626Z,84.64
2023-04-07T00:37:29.711Z,84.65
2023-04-07T00:42:25.461Z,84.85
2023-04-07T00:47:18.305Z,84.77
2023-04-07T00:52:12.570Z,84.97
2023-04-07T00:57:05.557Z,84.81
2023-04-07T01:07:47.500Z,84.99
2023-04-07T01:12:49.114Z,84.96
2023-04-07T01:17:54.544Z,85.08
2023-04-07T01:22:54.590Z,85.22
2023-04-07T01:28:04.227Z,85.36
2023-04-07T01:32:59.523Z,85.47
2023-04-07T01:37:53.747Z,85.48
2023-04-07T01:42:48.813Z,85.41
2023-04-07T01:47:45.123Z,85.53
2023-04-07T01:52:39.103Z,85.57
2023-04-07T01:57:32.280Z,85.88
2023-04-07T02:02:30.712Z,85.65
2023-04-07T02:07:41.439Z,85.75
2023-04-07T02:12:36.606Z,85.76
2023-04-07T02:17:39.331Z,85.84
2023-04-07T02:22:34.309Z,85.83
2023-04-07T02:27:27.133Z,86.05
2023-04-07T02:32:20.076Z,85.88
2023-04-07T02:37:12.970Z,85.94
2023-04-07T02:42:05.953Z,85.96
2023-04-07T02:46:58.760Z,86.11
2023-04-07T02:51:51.557Z,86.25
2023-04-07T02:56:44.354Z,86.29
2023-04-07T03:01:37.266Z,86.30
2023-04-07T03:06:30.215Z,86.29
2023-04-07T03:11:31.298Z,86.50
2023-04-07T03:16:25.746Z,86.46
2023-04-07T03:21:25.993Z,86.36
2023-04-07T03:26:18.910Z,86.50
2023-04-07T03:31:11.837Z,86.56
2023-04-07T03:36:04.922Z,86.68
2023-04-07T03:40:58.475Z,86.67
2023-04-07T03:45:51.951Z,86.72
2023-04-07T03:50:47.720Z,86.76
2023-04-07T03:55:43.760Z,86.73
2023-04-07T04:00:44.063Z,86.88
2023-04-07T04:05:37.454Z,86.89
2023-04-07T04:10:30.482Z,86.87
2023-04-07T04:15:24.030Z,86.96
2023-04-07T04:20:17.174Z,87.06
2023-04-07T04:25:13.452Z,87.12
2023-04-07T04:30:09.544Z,87.26
2023-04-07T04:35:14.810Z,87.24
2023-04-07T04:40:16.055Z,87.23
2023-04-07T04:45:10.385Z,87.29
2023-04-07T04:50:04.654Z,87.37
2023-04-07T04:54:59.412Z,87.48
2023-04-07T04:59:53.011Z,87.40
2023-04-07T05:04:46.373Z,87.35
2023-04-07T05:09:51.343Z,87.31
2023-04-07T05:14:45.089Z,87.36
2023-04-07T05:19:37.959Z,87.34
2023-04-07T05:24:36.931Z,87.55
2023-04-07T05:29:30.734Z,87.52
2023-04-07T05:34:24.160Z,87.46
2023-04-07T05:39:19.958Z,87.43
2023-04-07T05:44:13.694Z,87.46
2023-04-07T05:54:06.499Z,87.33
2023-04-07T05:59:00.698Z,87.24
2023-04-07T06:03:53.976Z,87.18
2023-04-07T06:08:52.024Z,87.07
2023-04-07T06:13:44.942Z,86.93
2023-04-07T06:18:38.009Z,86.76
2023-04-07T06:23:32.567Z,86.41
2023-04-07T06:28:25.579Z,86.22
2023-04-07T06:33:18.860Z,85.70
2023-04-07T06:38:12.369Z,85.44
2023-04-07T06:43:06.368Z,85.29
2023-04-07T06:48:15.706Z,85.50
2023-04-07T06:53:08.505Z,85.23
2023-04-07T06:58:02.946Z,85.25
2023-04-07T07:02:56.132Z,85.62
2023-04-07T07:07:49.062Z,85.54
2023-04-07T07:12:41.828Z,85.47
2023-04-07T07:17:34.608Z,85.65
2023-04-07T07:22:27.444Z,85.71
2023-04-07T07:27:20.309Z,85.80
2023-04-07T07:32:13.158Z,85.32
2023-04-07T07:37:06.137Z,84.34
2023-04-07T07:41:58.989Z,83.46
2023-04-07T07:46:52.264Z,83.19
2023-04-07T07:51:46.275Z,82.90
2023-04-07T07:56:39.089Z,82.63
2023-04-07T08:01:32.403Z,82.38
2023-04-07T08:06:25.486Z,82.23
2023-04-07T08:11:19.167Z,82.21
2023-04-07T08:16:12.713Z,82.34
2023-04-07T08:21:06.850Z,82.50
2023-04-07T08:25:59.839Z,82.45
2023-04-07T08:30:52.747Z,82.26
2023-04-07T08:35:45.530Z,81.93
2023-04-07T08:40:38.746Z,81.60
2023-04-07T08:45:34.710Z,81.53
2023-04-07T08:50:28.859Z,81.80
2023-04-07T08:55:22.004Z,81.98
2023-04-07T09:00:16.699Z,82.32
2023-04-07T09:05:10.310Z,82.58
2023-04-07T09:10:04.094Z,82.76
2023-04-07T09:14:57.328Z,82.91
2023-04-07T09:19:50.664Z,83.00
2023-04-07T09:24:43.730Z,82.94
2023-04-07T09:29:36.662Z,82.63
2023-04-07T09:34:34.587Z,82.79
2023-04-07T09:39:28.310Z,82.65
2023-04-07T09:44:22.829Z,82.28
2023-04-07T09:49:15.701Z,82.37
2023-04-07T09:54:08.606Z,82.50
2023-04-07T09:59:03.013Z,82.42
2023-04-07T10:03:56.649Z,82.25
2023-04-07T10:08:49.815Z,82.24
2023-04-07T10:13:43.570Z,81.95
2023-04-07T10:18:38.540Z,82.12
2023-04-07T10:23:58.162Z,82.00
2023-04-07T10:28:55.033Z,81.97
2023-04-07T10:33:51.468Z,81.99
2023-04-07T10:39:11.187Z,81.77
2023-04-07T10:44:05.283Z,81.75
2023-04-07T10:49:11.766Z,81.94
2023-04-07T10:54:23.781Z,82.41
2023-04-07T10:59:17.324Z,82.44
2023-04-07T11:04:10.317Z,82.53
2023-04-07T11:09:03.404Z,82.82
2023-04-07T11:13:56.316Z,82.79
2023-04-07T11:18:49.289Z,82.90
2023-04-07T11:23:44.582Z,82.74
2023-04-07T11:28:46.444Z,83.09
2023-04-07T11:33:42.238Z,83.30
2023-04-07T11:38:39.575Z,83.30
2023-04-07T11:43:32.451Z,83.23
2023-04-07T11:48:31.345Z,83.40
2023-04-07T11:53:32.639Z,83.52
2023-04-07T11:58:51.663Z,83.22
2023-04-07T12:04:04.892Z,83.15
2023-04-07T12:08:58.082Z,83.05
2023-04-07T12:13:51.047Z,83.21
2023-04-07T12:18:43.883Z,82.76
2023-04-07T12:23:37.350Z,81.74
2023-04-07T12:28:31.630Z,81.04
2023-04-07T12:33:24.734Z,78.99
2023-04-07T12:38:17.618Z,77.35
2023-04-07T12:43:10.990Z,76.77
2023-04-07T12:48:04.439Z,76.92
2023-04-07T12:52:59.482Z,76.63
2023-04-07T12:57:52.872Z,76.79
2023-04-07T13:02:46.357Z,76.32
2023-04-07T13:07:39.436Z,75.28
2023-04-07T13:12:32.308Z,75.20
2023-04-07T13:17:25.293Z,75.16
2023-04-07T13:22:21.625Z,75.08
2023-04-07T13:27:15.076Z,75.14
2023-04-07T13:32:13.165Z,75.38
2023-04-07T13:37:07.196Z,75.10
2023-04-07T13:42:01.266Z,74.16
2023-04-07T13:46:56.148Z,73.53
2023-04-07T13:51:49.500Z,73.24
2023-04-07T13:56:42.426Z,72.91
2023-04-07T14:01:39.123Z,72.95
2023-04-07T14:06:32.276Z,73.46
2023-04-07T14:11:25.160Z,73.60
2023-04-07T14:16:18.713Z,73.53
2023-04-07T14:21:11.649Z,73.47
2023-04-07T14:26:05.217Z,73.61
2023-04-07T14:30:58.114Z,73.54
2023-04-07T14:35:51.610Z,73.22
2023-04-07T14:40:45.393Z,73.29
2023-04-07T14:45:39.194Z,72.87
2023-04-07T14:50:34.670Z,72.37
2023-04-07T14:55:27.652Z,72.30
2023-04-07T15:00:21.007Z,71.95
2023-04-07T15:05:13.905Z,71.49
2023-04-07T15:10:07.523Z,70.87
2023-04-07T15:15:00.647Z,70.46
2023-04-07T15:19:53.467Z,70.03
2023-04-07T15:24:46.255Z,70.18
2023-04-07T15:29:42.493Z,70.14
2023-04-07T15:34:35.394Z,70.56
2023-04-07T15:39:28.241Z,70.41
2023-04-07T15:44:21.188Z,70.82
2023-04-07T15:49:14.004Z,71.22
2023-04-07T15:54:06.861Z,70.58
2023-04-07T15:58:59.660Z,70.58
2023-04-07T16:03:52.776Z,70.61
2023-04-07T16:08:45.788Z,70.44
2023-04-07T16:13:38.559Z,70.11
2023-04-07T16:18:31.409Z,70.22
2023-04-07T16:23:24.436Z,69.84
2023-04-07T16:28:17.641Z,69.99
2023-04-07T16:33:10.644Z,69.80
2023-04-07T16:38:06.381Z,69.56
2023-04-07T16:42:59.648Z,69.78
2023-04-07T16:47:52.548Z,69.74
2023-04-07T16:52:46.922Z,69.94
2023-04-07T16:57:39.771Z,70.08
2023-04-07T17:02:33.440Z,70.23
2023-04-07T17:07:26.495Z,70.71
2023-04-07T17:12:19.314Z,70.81
2023-04-07T17:17:12.182Z,71.21
2023-04-07T17:22:05.000Z,71.44
2023-04-07T17:26:57.900Z,71.67
2023-04-07T17:31:50.840Z,71.52
2023-04-07T17:36:43.647Z,71.78
2023-04-07T17:41:38.465Z,72.16
2023-04-07T17:46:32.108Z,72.36
2023-04-07T17:51:26.881Z,72.36
2023-04-07T17:56:20.439Z,72.19
2023-04-07T18:01:13.770Z,72.40
2023-04-07T18:06:08.569Z,72.40
2023-04-07T18:11:01.501Z,72.46
2023-04-07T18:15:55.209Z,72.57
2023-04-07T18:20:48.338Z,72.58
2023-04-07T18:25:41.150Z,72.40
2023-04-07T18:30:34.637Z,72.67
2023-04-07T18:35:28.660Z,72.96
2023-04-07T18:40:21.954Z,72.50
2023-04-07T18:45:14.788Z,72.71
2023-04-07T18:50:08.430Z,72.79
2023-04-07T18:55:01.249Z,73.12
2023-04-07T18:59:54.087Z,73.09
2023-04-07T19:04:46.881Z,73.42
2023-04-07T19:09:40.057Z,73.30
2023-04-07T19:14:32.861Z,73.64
2023-04-07T19:19:26.133Z,73.41
2023-04-07T19:24:18.964Z,73.20
2023-04-07T19:29:12.662Z,72.81
2023-04-07T19:34:05.475Z,72.55
2023-04-07T19:38:58.337Z,72.62
2023-04-07T19:43:51.682Z,72.71
2023-04-07T19:48:44.548Z,72.51
2023-04-07T19:53:37.641Z,72.66
2023-04-07T19:58:30.458Z,72.69
2023-04-07T20:03:24.442Z,72.56
2023-04-07T20:08:17.428Z,72.88
2023-04-07T20:13:10.602Z,72.75
2023-04-07T20:18:03.721Z,72.62
2023-04-07T20:22:56.616Z,72.42
2023-04-07T20:27:50.538Z,71.88
2023-04-07T20:32:43.615Z,71.86
2023-04-07T20:37:36.709Z,72.02
2023-04-07T20:42:29.500Z,71.79
2023-04-07T20:47:22.388Z,72.04
2023-04-07T20:52:15.275Z,72.03
2023-04-07T20:57:08.079Z,72.05
2023-04-07T21:02:01.054Z,71.88
2023-04-07T21:06:53.972Z,71.91
2023-04-07T21:11:46.874Z,71.90
2023-04-07T21:16:39.667Z,71.72
2023-04-07T21:21:32.727Z,71.49
2023-04-07T21:26:26.649Z,71.37
2023-04-07T21:31:23.634Z,71.11
2023-04-07T21:36:16.574Z,71.30
2023-04-07T21:41:09.653Z,71.15
2023-04-07T21:46:02.711Z,71.12
2023-04-07T21:50:55.696Z,71.29
2023-04-07T21:55:48.539Z,71.31
2023-04-07T22:00:42.026Z,71.34
2023-04-07T22:05:39.507Z,71.18
2023-04-07T22:10:33.014Z,71.14
2023-04-07T22:15:26.822Z,71.14
2023-04-07T22:20:19.680Z,71.46
2023-04-07T22:25:12.499Z,71.47
2023-04-07T22:30:08.694Z,71.52
2023-04-07T22:35:01.515Z,71.25
2023-04-07T22:39:54.520Z,71.28
2023-04-07T22:44:48.205Z,71.25
2023-04-07T22:49:41.061Z,71.28
2023-04-07T22:54:34.769Z,71.39
2023-04-07T22:59:27.717Z,71.41
2023-04-07T23:04:22.645Z,71.44
2023-04-07T23:09:15.798Z,71.66
2023-04-07T23:14:08.854Z,71.36
2023-04-07T23:19:02.336Z,71.40
2023-04-07T23:23:55.412Z,71.48
2023-04-07T23:28:48.797Z,71.60
2023-04-07T23:33:41.780Z,71.60
2023-04-07T23:38:36.377Z,71.57
2023-04-07T23:43:29.167Z,71.53
2023-04-07T23:48:21.961Z,71.78
2023-04-07T23:53:14.773Z,71.66
2023-04-07T23:58:07.569Z,71.61
